Time;durP1;ratioP1;P1;durP2;ratioP2;P2;SDS_P1;SDS_P2;PMS_P1;PMS_P2;Temp;Humidity;BMP_temperature;BMP_pressure;BME280_temperature;BME280_humidity;BME280_pressure;Samples;Min_cycle;Max_cycle;Signal;HPM_P1;HPM_P2
2021/01/19 00:00:15;;;;;;;3.05;0.90;;;;;;;11.99;78.46;99858.22;4977310;28;20456;-89
2021/01/19 00:02:41;;;;;;;1.33;0.80;;;;;;;12.37;77.52;99854.19;5005663;28;20031;-90
2021/01/19 00:05:07;;;;;;;2.28;1.20;;;;;;;12.39;77.45;99860.16;4975191;28;20294;-90
2021/01/19 00:07:32;;;;;;;2.10;0.90;;;;;;;12.22;77.96;99848.38;4975649;28;20030;-91
2021/01/19 00:09:58;;;;;;;1.83;0.98;;;;;;;11.97;79.00;99846.97;4974959;28;20058;-89
2021/01/19 00:12:23;;;;;;;5.57;1.20;;;;;;;12.19;77.98;99846.84;4975405;28;20031;-89
2021/01/19 00:14:50;;;;;;;2.08;1.00;;;;;;;12.30;77.33;99835.41;4973185;28;20469;-89
2021/01/19 00:17:16;;;;;;;1.58;0.93;;;;;;;12.27;77.71;99823.34;4973505;28;20027;-89
2021/01/19 00:19:41;;;;;;;1.20;0.93;;;;;;;12.17;78.19;99819.00;4973394;28;20023;-89
2021/01/19 00:22:07;;;;;;;1.73;0.80;;;;;;;12.14;78.28;99801.66;4974501;28;20481;-90
2021/01/19 00:24:32;;;;;;;0.80;0.80;;;;;;;12.18;79.04;99816.22;4973700;28;20165;-89
2021/01/19 00:26:58;;;;;;;0.82;0.75;;;;;;;12.41;77.44;99802.94;4973592;28;20098;-90
2021/01/19 00:29:23;;;;;;;1.27;0.80;;;;;;;12.19;78.95;99809.19;5005039;28;20473;-90
2021/01/19 00:31:48;;;;;;;1.00;0.90;;;;;;;12.15;79.56;99824.41;4973208;28;20041;-91
2021/01/19 00:34:14;;;;;;;1.27;1.00;;;;;;;11.97;79.40;99774.16;4973273;28;20015;-88
2021/01/19 00:36:39;;;;;;;1.13;0.90;;;;;;;12.09;79.28;99788.06;4974182;28;20031;-89
2021/01/19 00:39:04;;;;;;;2.80;0.93;;;;;;;11.86;79.95;99785.50;4973312;28;20424;-91
2021/01/19 00:41:30;;;;;;;0.93;0.80;;;;;;;11.61;80.75;99778.84;5004343;28;20106;-90
2021/01/19 00:43:55;;;;;;;1.98;1.00;;;;;;;12.06;79.68;99777.78;4972252;28;20019;-92
2021/01/19 00:46:21;;;;;;;1.10;0.80;;;;;;;11.93;80.00;99761.34;4971728;28;20504;-90
2021/01/19 00:48:46;;;;;;;0.68;0.60;;;;;;;12.28;79.07;99769.75;4973051;28;20441;-90
2021/01/19 00:51:11;;;;;;;0.43;0.43;;;;;;;12.32;78.50;99774.75;4974086;28;20027;-91
2021/01/19 00:53:37;;;;;;;0.57;0.50;;;;;;;12.09;79.33;99762.59;4972877;28;20370;-92
2021/01/19 00:56:02;;;;;;;0.90;0.50;;;;;;;12.08;79.21;99775.84;4973194;28;20031;-90
2021/01/19 00:58:28;;;;;;;1.40;0.80;;;;;;;11.96;79.78;99756.69;4973550;28;20041;-92
2021/01/19 01:00:53;;;;;;;0.65;0.60;;;;;;;12.00;80.12;99758.09;4972143;28;20027;-91
2021/01/19 01:03:18;;;;;;;2.65;0.75;;;;;;;12.00;79.65;99746.72;4988905;28;20268;-89
2021/01/19 01:05:44;;;;;;;1.90;0.77;;;;;;;12.19;78.96;99741.59;4992273;28;20022;-90
2021/01/19 01:08:09;;;;;;;1.73;0.80;;;;;;;11.95;79.99;99741.00;4992693;28;20069;-91
2021/01/19 01:10:34;;;;;;;2.20;0.70;;;;;;;11.96;80.21;99740.88;4991216;28;20065;-91
2021/01/19 01:13:00;;;;;;;0.60;0.60;;;;;;;12.11;79.68;99733.50;4991082;28;20491;-91
2021/01/19 01:15:36;;;;;;;0.98;0.60;;;;;;;12.08;79.47;99726.72;4992450;28;20026;-91
2021/01/19 01:18:04;;;;;;;0.40;0.40;;;;;;;12.14;79.57;99727.97;4996730;28;20026;-90
2021/01/19 01:20:29;;;;;;;1.00;0.40;;;;;;;12.27;78.76;99717.25;4989009;28;20069;-90
2021/01/19 01:22:57;;;;;;;0.55;0.38;;;;;;;11.89;80.27;99706.38;4973451;28;20101;-89
2021/01/19 01:25:23;;;;;;;0.20;0.20;;;;;;;12.07;80.03;99716.31;4971891;28;20026;-90
2021/01/19 01:27:48;;;;;;;0.10;0.10;;;;;;;12.43;78.58;99716.75;4973602;28;20026;-90
2021/01/19 01:30:15;;;;;;;0.20;0.20;;;;;;;12.07;79.95;99716.31;4990648;28;20026;-90
2021/01/19 01:32:42;;;;;;;0.43;0.17;;;;;;;12.10;79.64;99697.63;4997508;28;20015;-89
2021/01/19 01:35:08;;;;;;;1.00;0.20;;;;;;;12.13;79.47;99692.09;4988625;28;20080;-90
2021/01/19 01:37:34;;;;;;;0.30;0.20;;;;;;;12.26;79.65;99703.25;4972948;28;20031;-89
2021/01/19 01:39:59;;;;;;;0.43;0.10;;;;;;;12.41;78.54;99692.34;4972917;28;20026;-89
2021/01/19 01:42:25;;;;;;;0.73;0.20;;;;;;;12.33;78.89;99684.28;4987694;28;20027;-89
2021/01/19 01:44:52;;;;;;;0.17;0.10;;;;;;;12.51;78.30;99698.47;5003819;28;20118;-90
2021/01/19 01:47:25;;;;;;;0.38;0.10;;;;;;;12.43;78.47;99696.50;4972664;28;20042;-91
2021/01/19 01:49:54;;;;;;;0.17;0.17;;;;;;;12.57;78.14;99684.78;4972368;28;20026;-89
2021/01/19 01:52:22;;;;;;;0.17;0.17;;;;;;;12.52;78.01;99678.25;4990071;28;20027;-90
2021/01/19 01:54:51;;;;;;;0.20;0.20;;;;;;;12.28;79.40;99688.16;4999019;28;20079;-91
2021/01/19 01:57:19;;;;;;;0.10;0.10;;;;;;;12.38;78.96;99682.06;4998114;28;20037;-90
2021/01/19 01:59:49;;;;;;;0.90;0.20;;;;;;;12.30;79.66;99675.69;4998620;28;20065;-89
2021/01/19 02:02:16;;;;;;;0.08;0.00;;;;;;;12.28;79.63;99672.38;4998707;28;20073;-89
2021/01/19 02:04:42;;;;;;;0.20;0.20;;;;;;;12.10;80.35;99673.94;5010117;23;20046;-94
2021/01/19 02:07:16;;;;;;;0.20;0.20;;;;;;;11.97;80.89;99668.09;4996128;28;20113;-94
2021/01/19 02:09:49;;;;;;;0.17;0.10;;;;;;;12.21;79.52;99658.06;4995000;28;20050;-96
2021/01/19 02:12:20;;;;;;;0.57;0.35;;;;;;;12.23;80.19;99664.03;4995029;28;20053;-95
2021/01/19 02:14:55;;;;;;;0.20;0.20;;;;;;;12.11;80.61;99675.63;4995922;28;20046;-95
2021/01/19 02:17:23;;;;;;;0.22;0.17;;;;;;;12.15;80.41;99670.94;4995966;28;20552;-94
2021/01/19 02:20:20;;;;;;;1.58;0.30;;;;;;;12.18;80.52;99675.91;4991797;28;20030;-95
2021/01/19 02:23:25;;;;;;;0.03;0.03;;;;;;;12.04;80.80;99675.28;4976231;28;20042;-96
2021/01/19 02:26:05;;;;;;;0.00;0.00;;;;;;;11.98;81.08;99669.72;4976646;28;20030;-95
2021/01/19 02:28:49;;;;;;;0.45;0.10;;;;;;;11.96;81.58;99676.94;4976414;28;20442;-94
2021/01/19 02:31:41;;;;;;;0.17;0.10;;;;;;;12.06;80.90;99672.53;4976238;28;20027;-96
2021/01/19 02:34:43;;;;;;;0.00;0.00;;;;;;;12.06;80.93;99672.53;4976486;28;20073;-94
2021/01/19 02:37:14;;;;;;;0.32;0.10;;;;;;;12.19;80.57;99686.31;4976291;28;20033;-95
2021/01/19 02:40:03;;;;;;;0.03;0.03;;;;;;;11.82;81.93;99688.59;4975359;28;20038;-96
2021/01/19 02:42:39;;;;;;;0.45;0.10;;;;;;;12.34;79.90;99675.41;4991185;28;20019;-94
2021/01/19 02:45:06;;;;;;;0.13;0.10;;;;;;;12.17;80.67;99682.97;4975566;28;20609;-95
2021/01/19 02:47:31;;;;;;;2.15;0.47;;;;;;;12.56;79.19;99696.28;4975779;28;20030;-94
2021/01/19 02:49:56;;;;;;;0.80;0.10;;;;;;;12.39;79.88;99686.38;4993049;28;20035;-94
2021/01/19 02:52:22;;;;;;;0.60;0.20;;;;;;;11.98;80.94;99688.97;4990849;28;20023;-93
2021/01/19 02:54:48;;;;;;;1.80;0.70;;;;;;;11.97;81.42;99700.47;4974898;28;20384;-94
2021/01/19 02:57:46;;;;;;;0.45;0.28;;;;;;;12.38;79.50;99693.47;4990603;28;20050;-95
2021/01/19 03:00:13;;;;;;;0.93;0.17;;;;;;;12.22;80.04;99662.38;4976280;28;20065;-94
2021/01/19 03:02:43;;;;;;;0.10;0.10;;;;;;;12.45;79.42;99673.50;4975460;28;20038;-93
2021/01/19 03:05:12;;;;;;;0.57;0.20;;;;;;;12.10;80.91;99673.94;4983040;28;20011;-93
2021/01/19 03:07:43;;;;;;;0.17;0.17;;;;;;;12.21;80.49;99676.50;4977440;28;20027;-93
2021/01/19 03:10:15;;;;;;;2.38;0.22;;;;;;;11.88;81.08;99652.06;4976800;28;20038;-94
2021/01/19 03:12:43;;;;;;;0.40;0.13;;;;;;;12.16;80.71;99676.03;4975734;28;20085;-94
2021/01/19 03:15:09;;;;;;;0.25;0.10;;;;;;;12.24;80.54;99680.66;4990923;28;20053;-95
2021/01/19 03:17:34;;;;;;;0.80;0.30;;;;;;;12.22;80.51;99670.28;4983633;28;20031;-94
2021/01/19 03:20:00;;;;;;;0.10;0.10;;;;;;;12.22;80.57;99670.28;4975958;28;20030;-95
2021/01/19 03:22:25;;;;;;;0.52;0.20;;;;;;;12.48;79.34;99673.25;4974345;28;20027;-95
2021/01/19 03:24:50;;;;;;;0.10;0.03;;;;;;;12.23;80.17;99674.56;4974647;28;20542;-93
2021/01/19 03:27:16;;;;;;;0.47;0.10;;;;;;;12.28;80.53;99672.38;4975975;28;20354;-94
2021/01/19 03:29:41;;;;;;;2.65;0.10;;;;;;;11.98;81.43;99680.25;4978304;28;20031;-94
2021/01/19 03:32:06;;;;;;;1.98;0.10;;;;;;;12.09;81.07;99673.13;4994537;28;20023;-93
2021/01/19 03:34:33;;;;;;;0.43;0.20;;;;;;;12.01;81.25;99674.75;4977993;28;20035;-95
2021/01/19 03:36:58;;;;;;;0.35;0.17;;;;;;;11.94;81.81;99674.41;4977380;28;20122;-93
2021/01/19 03:39:24;;;;;;;2.17;0.30;;;;;;;11.85;82.15;99681.28;4977951;28;20447;-95
2021/01/19 03:41:49;;;;;;;1.95;0.20;;;;;;;11.69;82.73;99691.44;4978350;28;20117;-95
2021/01/19 03:44:14;;;;;;;3.28;0.10;;;;;;;11.57;82.77;99676.66;4983122;28;20105;-95
2021/01/19 03:46:40;;;;;;;1.42;0.10;;;;;;;11.65;82.54;99684.75;4993928;28;20018;-95
2021/01/19 03:49:05;;;;;;;2.03;0.15;;;;;;;11.76;82.31;99682.03;4993533;28;20113;-95
2021/01/19 03:51:31;;;;;;;0.13;0.10;;;;;;;11.66;82.34;99689.88;4995517;28;20046;-95
2021/01/19 03:53:56;;;;;;;5.93;0.47;;;;;;;11.51;82.44;99689.38;4995475;28;20523;-96
2021/01/19 03:56:21;;;;;;;1.35;0.17;;;;;;;11.52;83.10;99684.94;5002036;28;20095;-96
2021/01/19 03:58:47;;;;;;;3.13;0.20;;;;;;;11.57;82.96;99676.66;4994264;28;20026;-95
2021/01/19 04:01:13;;;;;;;0.60;0.10;;;;;;;11.74;82.12;99683.16;4993013;28;20034;-95
2021/01/19 04:03:39;;;;;;;0.38;0.10;;;;;;;11.68;82.50;99674.81;4979468;28;20090;-95
2021/01/19 04:06:08;;;;;;;2.60;0.10;;;;;;;11.37;83.42;99692.28;4975038;28;20035;-95
2021/01/19 04:08:38;;;;;;;0.60;0.10;;;;;;;11.64;82.35;99673.41;4973187;28;20385;-94
2021/01/19 04:11:07;;;;;;;0.95;0.30;;;;;;;11.71;82.08;99677.19;4973054;28;20027;-95
2021/01/19 04:13:33;;;;;;;0.45;0.10;;;;;;;11.75;81.55;99679.53;4974246;28;20054;-95
2021/01/19 04:15:59;;;;;;;0.30;0.10;;;;;;;11.79;81.24;99668.66;4989220;28;20027;-93
2021/01/19 04:18:24;;;;;;;0.32;0.20;;;;;;;11.65;81.58;99668.97;4984790;28;20030;-93
2021/01/19 04:20:50;;;;;;;1.25;0.30;;;;;;;11.53;82.04;99670.81;4993543;28;20036;-95
2021/01/19 04:23:16;;;;;;;0.20;0.20;;;;;;;11.56;82.33;99675.84;4994561;28;20461;-96
2021/01/19 04:25:45;;;;;;;0.50;0.10;;;;;;;11.70;81.54;99666.78;4993230;28;20041;-96
2021/01/19 04:28:11;;;;;;;0.10;0.10;;;;;;;11.78;81.18;99672.22;4994022;28;20473;-94
2021/01/19 04:30:41;;;;;;;1.90;0.40;;;;;;;11.70;81.87;99672.88;4993721;28;20030;-94
2021/01/19 04:33:06;;;;;;;3.15;0.28;;;;;;;11.40;82.45;99662.31;4982476;28;20027;-93
2021/01/19 04:35:32;;;;;;;2.30;0.13;;;;;;;11.71;81.37;99664.03;4972435;28;20022;-93
2021/01/19 04:37:58;;;;;;;2.33;0.32;;;;;;;11.76;81.11;99668.91;4973638;28;20067;-93
2021/01/19 04:40:23;;;;;;;1.58;0.32;;;;;;;11.74;81.07;99656.84;4973656;28;20018;-94
2021/01/19 04:42:48;;;;;;;1.75;0.10;;;;;;;11.59;81.61;99666.84;4972484;28;20110;-94
2021/01/19 04:45:14;;;;;;;2.97;0.30;;;;;;;11.66;81.42;99650.44;4973758;28;20492;-95
2021/01/19 04:47:39;;;;;;;3.15;0.20;;;;;;;11.79;80.91;99655.50;4974884;28;20022;-95
2021/01/19 04:50:08;;;;;;;1.65;0.30;;;;;;;11.63;81.32;99655.13;4972435;28;20079;-95
2021/01/19 04:52:34;;;;;;;3.85;0.30;;;;;;;11.63;81.38;99657.75;4972767;28;20117;-94
2021/01/19 04:55:08;;;;;;;4.72;0.47;;;;;;;11.62;81.37;99654.28;4972710;28;20470;-95
2021/01/19 04:57:36;;;;;;;2.53;0.22;;;;;;;11.34;82.19;99645.25;4973815;28;20503;-92
2021/01/19 05:00:16;;;;;;;3.60;0.30;;;;;;;11.37;82.08;99649.41;4973651;28;20281;-94
2021/01/19 05:03:03;;;;;;;2.00;0.30;;;;;;;11.50;81.87;99656.16;4980750;28;20392;-93
2021/01/19 05:05:37;;;;;;;1.40;0.20;;;;;;;11.35;82.28;99661.84;4994632;28;20035;-93
2021/01/19 05:08:02;;;;;;;2.35;0.40;;;;;;;11.60;81.79;99665.91;4992842;28;20034;-93
2021/01/19 05:10:36;;;;;;;2.72;0.43;;;;;;;11.50;81.54;99658.78;4993305;28;20030;-95
2021/01/19 05:13:13;;;;;;;1.88;0.30;;;;;;;11.44;82.00;99655.84;4992159;28;20042;-95
2021/01/19 05:15:43;;;;;;;0.75;0.20;;;;;;;11.22;82.35;99657.63;4992330;28;20022;-93
2021/01/19 05:18:10;;;;;;;4.38;0.45;;;;;;;11.26;82.63;99645.88;4990019;28;20104;-93
2021/01/19 05:20:46;;;;;;;3.10;0.30;;;;;;;11.33;82.02;99659.34;4992690;28;20038;-93
2021/01/19 05:23:22;;;;;;;3.53;0.35;;;;;;;11.61;81.26;99660.53;4992695;28;20027;-93
2021/01/19 05:25:57;;;;;;;4.10;0.30;;;;;;;11.66;80.93;99665.38;4992474;28;20027;-93
2021/01/19 05:28:36;;;;;;;0.75;0.20;;;;;;;11.36;81.45;99659.09;4994553;28;20034;-94
2021/01/19 05:31:23;;;;;;;5.47;0.30;;;;;;;11.45;81.73;99663.59;4996058;28;20034;-92
2021/01/19 05:33:54;;;;;;;2.97;0.32;;;;;;;11.34;81.27;99653.16;4975328;28;20037;-95
2021/01/19 05:36:21;;;;;;;0.80;0.20;;;;;;;11.31;81.45;99648.13;4977637;28;20067;-94
2021/01/19 05:38:57;;;;;;;2.05;0.45;;;;;;;11.52;81.11;99648.13;4976124;28;20027;-95
2021/01/19 05:41:44;;;;;;;1.50;0.20;;;;;;;11.45;81.16;99645.22;4977264;28;20507;-95
2021/01/19 05:44:26;;;;;;;6.32;0.22;;;;;;;11.32;81.62;99648.00;4978918;28;20508;-95
2021/01/19 05:46:58;;;;;;;1.02;0.13;;;;;;;11.18;82.12;99642.25;4982669;28;20058;-95
2021/01/19 05:49:32;;;;;;;2.72;0.50;;;;;;;11.19;82.57;99639.47;4996056;28;20019;-93
2021/01/19 05:52:03;;;;;;;0.55;0.17;;;;;;;11.24;82.24;99649.63;4995483;28;20037;-94
2021/01/19 05:54:39;;;;;;;3.30;0.38;;;;;;;11.26;82.21;99658.22;5011520;28;20019;-95
2021/01/19 05:57:06;;;;;;;2.17;0.28;;;;;;;11.36;81.47;99658.28;4996483;28;20022;-95
2021/01/19 05:59:36;;;;;;;2.15;0.20;;;;;;;11.39;81.70;99648.31;5011483;28;20061;-94
2021/01/19 06:02:07;;;;;;;0.65;0.20;;;;;;;11.50;81.33;99650.06;4983661;28;20030;-93
2021/01/19 06:04:37;;;;;;;2.85;0.10;;;;;;;11.54;80.95;99650.66;4975832;28;20113;-94
2021/01/19 06:07:03;;;;;;;2.47;0.30;;;;;;;11.35;81.67;99641.66;4976438;28;20034;-94
2021/01/19 06:09:29;;;;;;;2.45;0.20;;;;;;;11.45;81.59;99646.97;4975252;28;20031;-94
2021/01/19 06:11:56;;;;;;;1.20;0.10;;;;;;;11.58;81.17;99646.78;4975680;28;20037;-95
2021/01/19 06:14:24;;;;;;;1.45;0.10;;;;;;;11.24;82.40;99652.25;4975127;28;20065;-94
2021/01/19 06:16:50;;;;;;;0.60;0.10;;;;;;;11.54;81.63;99650.66;5002880;28;20041;-94
2021/01/19 06:19:28;;;;;;;1.00;0.05;;;;;;;11.57;80.81;99648.59;4994847;28;20121;-93
2021/01/19 06:21:55;;;;;;;2.53;0.20;;;;;;;11.45;81.24;99636.47;4995586;28;20081;-94
2021/01/19 06:24:31;;;;;;;0.63;0.20;;;;;;;11.69;80.19;99634.41;4995734;28;20023;-94
2021/01/19 06:26:57;;;;;;;0.93;0.40;;;;;;;11.52;80.97;99642.88;4995148;28;20064;-93
2021/01/19 06:29:24;;;;;;;3.60;0.32;;;;;;;11.26;81.46;99645.06;5011079;28;20120;-96
2021/01/19 06:31:50;;;;;;;2.35;0.10;;;;;;;11.51;80.82;99639.44;4993640;28;20038;-93
2021/01/19 06:34:24;;;;;;;4.35;0.70;;;;;;;11.33;81.42;99646.19;5010364;28;20057;-92
2021/01/19 06:36:49;;;;;;;0.88;0.15;;;;;;;11.58;80.97;99657.31;4994007;28;20125;-93
2021/01/19 06:39:27;;;;;;;2.05;0.22;;;;;;;11.46;81.25;99641.59;4993645;28;20121;-93
2021/01/19 06:42:03;;;;;;;0.95;0.17;;;;;;;11.51;81.06;99655.19;4995480;28;20030;-94
2021/01/19 06:44:35;;;;;;;4.22;0.75;;;;;;;11.47;81.30;99645.06;4994085;28;20038;-94
2021/01/19 06:47:03;;;;;;;3.53;0.50;;;;;;;11.17;82.62;99635.31;4994026;28;20023;-93
2021/01/19 06:49:32;;;;;;;4.40;0.38;;;;;;;11.55;81.24;99657.56;4992277;28;20069;-93
2021/01/19 06:52:06;;;;;;;4.38;0.50;;;;;;;11.59;81.42;99656.34;4994025;28;20061;-94
2021/01/19 06:55:04;;;;;;;7.93;0.45;;;;;;;11.22;82.45;99651.53;4994182;28;20117;-93
2021/01/19 06:57:45;;;;;;;2.08;0.32;;;;;;;11.59;81.61;99654.56;4993687;28;20023;-93
2021/01/19 07:00:18;;;;;;;4.53;0.90;;;;;;;11.23;82.73;99654.00;4994251;28;20026;-92
2021/01/19 07:02:44;;;;;;;2.50;0.50;;;;;;;11.49;81.93;99643.13;4977077;28;20305;-92
2021/01/19 07:05:12;;;;;;;1.90;0.47;;;;;;;11.66;81.47;99654.88;4974117;28;20480;-91
2021/01/19 07:07:48;;;;;;;6.97;1.13;;;;;;;11.68;80.66;99652.94;4973274;28;20054;-92
2021/01/19 07:10:41;;;;;;;8.32;0.95;;;;;;;11.42;81.69;99658.59;4973401;28;20038;-92
2021/01/19 07:13:07;;;;;;;7.32;0.80;;;;;;;11.29;81.64;99643.03;4974515;28;20478;-92
2021/01/19 07:15:53;;;;;;;4.53;0.75;;;;;;;11.34;81.95;99661.03;4975015;28;20019;-92
2021/01/19 07:18:40;;;;;;;4.60;0.85;;;;;;;11.25;82.46;99651.28;4973690;28;20481;-93
2021/01/19 07:21:10;;;;;;;10.52;1.00;;;;;;;11.22;82.54;99646.28;4973303;28;20022;-91
2021/01/19 07:23:44;;;;;;;6.03;1.00;;;;;;;11.27;82.37;99657.22;4989216;28;20511;-92
2021/01/19 07:26:15;;;;;;;6.65;0.93;;;;;;;11.38;81.90;99651.09;4985106;28;20105;-91
2021/01/19 07:28:40;;;;;;;5.18;0.88;;;;;;;11.28;81.82;99640.50;4992683;28;20046;-94
2021/01/19 07:31:06;;;;;;;5.47;0.82;;;;;;;11.24;81.68;99637.31;4987460;28;20496;-92
2021/01/19 07:33:33;;;;;;;5.40;0.95;;;;;;;11.11;82.98;99650.59;4990563;28;20053;-93
2021/01/19 07:35:59;;;;;;;9.20;0.95;;;;;;;11.30;81.93;99649.09;4986983;28;20026;-93
2021/01/19 07:38:26;;;;;;;6.60;0.75;;;;;;;11.23;81.94;99646.13;4990910;28;20023;-94
2021/01/19 07:40:51;;;;;;;5.22;0.77;;;;;;;11.36;81.71;99651.22;4976995;28;20458;-93
2021/01/19 07:43:18;;;;;;;4.63;0.50;;;;;;;11.55;81.10;99657.56;4974455;28;20050;-94
2021/01/19 07:45:54;;;;;;;4.38;0.60;;;;;;;11.52;81.42;99648.97;4985659;28;20026;-93
2021/01/19 07:48:29;;;;;;;4.55;0.35;;;;;;;11.39;81.32;99650.13;4986420;28;20029;-92
2021/01/19 07:50:55;;;;;;;1.25;0.57;;;;;;;11.14;81.98;99643.44;4980217;28;20524;-93
2021/01/19 07:53:20;;;;;;;7.53;0.95;;;;;;;11.22;82.15;99646.28;4972879;28;20027;-93
2021/01/19 07:55:46;;;;;;;3.70;0.52;;;;;;;11.47;81.24;99645.91;4977828;28;20035;-92
2021/01/19 07:58:16;;;;;;;8.27;1.20;;;;;;;11.30;81.75;99646.47;4977593;28;20396;-92
2021/01/19 08:00:45;;;;;;;5.28;0.70;;;;;;;11.03;82.47;99642.53;4992133;28;20043;-92
2021/01/19 08:03:10;;;;;;;4.63;0.60;;;;;;;11.32;81.71;99644.56;4991526;28;20488;-91
2021/01/19 08:05:36;;;;;;;5.80;0.95;;;;;;;11.55;80.29;99636.53;4993150;28;20084;-92
2021/01/19 08:08:13;;;;;;;5.72;0.60;;;;;;;11.77;80.09;99635.53;4984435;28;20031;-92
2021/01/19 08:10:38;;;;;;;3.53;0.50;;;;;;;11.69;80.05;99628.31;4973027;28;20027;-92
2021/01/19 08:13:04;;;;;;;6.00;1.13;;;;;;;11.46;80.81;99628.44;4974479;28;20038;-90
2021/01/19 08:15:32;;;;;;;3.40;0.40;;;;;;;11.81;79.68;99640.41;4982869;28;20015;-89
2021/01/19 08:17:59;;;;;;;4.68;0.50;;;;;;;11.84;79.31;99645.41;4992393;28;20030;-90
2021/01/19 08:20:28;;;;;;;3.53;0.60;;;;;;;11.81;79.34;99642.19;4992249;28;20026;-89
2021/01/19 08:22:55;;;;;;;12.98;1.08;;;;;;;11.88;79.26;99633.66;4972983;28;20059;-91
2021/01/19 08:25:29;;;;;;;4.40;0.57;;;;;;;11.93;78.70;99635.09;4972527;28;20022;-90
2021/01/19 08:27:59;;;;;;;2.88;0.60;;;;;;;11.62;80.08;99641.13;4975863;28;20472;-90
2021/01/19 08:30:27;;;;;;;5.00;0.70;;;;;;;11.61;79.53;99641.25;4992617;28;20026;-90
2021/01/19 08:32:56;;;;;;;6.43;1.23;;;;;;;11.66;79.33;99628.56;4973168;28;20479;-90
2021/01/19 08:35:23;;;;;;;5.40;0.68;;;;;;;11.62;79.38;99628.00;4981403;28;20072;-90
2021/01/19 08:37:53;;;;;;;6.85;1.10;;;;;;;11.86;78.39;99618.97;4974385;28;20026;-89
2021/01/19 08:40:26;;;;;;;3.95;0.70;;;;;;;11.98;78.28;99623.19;4972422;28;20080;-89
2021/01/19 08:42:52;;;;;;;12.13;1.77;;;;;;;11.90;78.61;99615.97;4974199;28;20042;-90
2021/01/19 08:45:32;;;;;;;4.60;0.57;;;;;;;11.86;79.13;99619.81;4981090;28;20069;-90
2021/01/19 08:47:59;;;;;;;7.65;0.90;;;;;;;11.62;79.50;99598.25;4989470;28;20030;-89
2021/01/19 08:50:30;;;;;;;2.63;0.90;;;;;;;11.86;79.28;99608.44;4998485;28;20062;-93
2021/01/19 08:53:00;;;;;;;4.88;0.73;;;;;;;11.47;79.70;99593.34;4999024;28;20611;-91
2021/01/19 08:55:25;;;;;;;5.85;1.20;;;;;;;11.58;80.27;99610.00;4990430;28;20273;-90
2021/01/19 08:57:55;;;;;;;5.78;0.70;;;;;;;11.66;80.06;99612.78;4996174;28;20650;-93
2021/01/19 09:00:28;;;;;;;3.42;0.68;;;;;;;11.65;79.35;99584.81;4994293;28;20031;-91
2021/01/19 09:02:55;;;;;;;7.47;0.63;;;;;;;11.62;79.35;99590.34;4995874;28;20022;-90
2021/01/19 09:05:30;;;;;;;2.85;1.13;;;;;;;11.88;78.92;99588.94;4993565;28;20401;-90
2021/01/19 09:07:57;;;;;;;3.17;0.80;;;;;;;12.00;78.75;99594.97;4995255;28;20030;-90
2021/01/19 09:10:27;;;;;;;1.85;0.52;;;;;;;11.65;79.32;99579.56;4996817;28;20571;-90
2021/01/19 09:12:54;;;;;;;8.30;0.60;;;;;;;12.18;78.12;99584.63;4998627;28;20023;-92
2021/01/19 09:15:19;;;;;;;3.13;0.75;;;;;;;11.89;79.01;99595.91;4993750;28;20029;-91
2021/01/19 09:17:57;;;;;;;8.10;1.02;;;;;;;11.33;80.87;99583.13;4994941;28;20038;-90
2021/01/19 09:20:27;;;;;;;6.18;0.70;;;;;;;11.55;80.72;99595.28;4990240;28;20493;-89
2021/01/19 09:22:53;;;;;;;2.70;0.50;;;;;;;11.56;80.17;99585.63;4985240;28;20041;-90
2021/01/19 09:25:23;;;;;;;4.22;0.65;;;;;;;11.42;80.88;99597.31;4992405;28;20023;-90
2021/01/19 09:27:49;;;;;;;5.28;0.65;;;;;;;11.18;81.40;99587.06;4992346;28;20555;-89
2021/01/19 09:30:18;;;;;;;6.63;1.55;;;;;;;11.52;80.84;99590.31;4983330;28;20026;-89
2021/01/19 09:32:44;;;;;;;2.50;0.60;;;;;;;11.31;81.60;99593.78;4985814;28;20039;-89
2021/01/19 09:35:12;;;;;;;4.45;0.50;;;;;;;11.55;80.80;99586.56;4982058;28;20035;-89
2021/01/19 09:37:38;;;;;;;3.70;0.55;;;;;;;11.63;80.42;99581.50;4992606;28;20028;-88
2021/01/19 09:40:05;;;;;;;1.80;0.47;;;;;;;11.76;80.66;99581.28;4993151;28;20065;-90
2021/01/19 09:42:30;;;;;;;2.90;0.40;;;;;;;11.88;79.82;99561.81;4986551;28;20040;-89
2021/01/19 09:44:56;;;;;;;1.80;0.40;;;;;;;11.93;79.24;99564.06;4977336;28;20134;-89
2021/01/19 09:47:24;;;;;;;4.25;0.50;;;;;;;12.04;79.49;99561.31;4988784;28;20049;-89
2021/01/19 09:49:52;;;;;;;2.38;0.80;;;;;;;12.03;79.15;99555.25;4978999;28;20413;-89
2021/01/19 09:52:18;;;;;;;3.45;0.68;;;;;;;12.26;78.77;99565.53;4988026;28;20121;-89
2021/01/19 09:54:44;;;;;;;0.73;0.30;;;;;;;12.21;78.70;99555.41;4985953;28;20461;-89
2021/01/19 09:57:09;;;;;;;2.70;0.50;;;;;;;12.08;78.84;99560.09;4992463;28;20057;-89
2021/01/19 09:59:35;;;;;;;6.90;0.50;;;;;;;12.08;79.21;99565.34;4991371;28;20041;-90
2021/01/19 10:02:01;;;;;;;4.55;0.60;;;;;;;12.18;78.84;99558.31;4980287;28;20378;-90
2021/01/19 10:04:28;;;;;;;4.82;1.60;;;;;;;12.05;79.05;99568.28;4978715;28;20062;-90
2021/01/19 10:07:14;;;;;;;5.85;0.65;;;;;;;12.01;79.19;99564.25;4990455;28;20026;-88
2021/01/19 10:09:39;;;;;;;2.95;0.68;;;;;;;12.05;79.53;99566.47;4992714;28;20043;-89
2021/01/19 10:12:07;;;;;;;2.92;0.65;;;;;;;12.07;79.79;99559.28;4975484;28;20034;-89
2021/01/19 10:14:37;;;;;;;3.88;0.75;;;;;;;12.07;79.95;99561.06;4978517;28;20034;-89
2021/01/19 10:17:03;;;;;;;4.15;0.95;;;;;;;12.30;79.13;99554.63;4980052;28;20035;-89
2021/01/19 10:19:30;;;;;;;2.63;0.52;;;;;;;12.32;78.68;99551.00;4982989;28;20049;-89
2021/01/19 10:22:04;;;;;;;4.25;0.82;;;;;;;11.72;79.65;99543.91;4981494;28;20108;-93
2021/01/19 10:24:30;;;;;;;4.90;0.75;;;;;;;11.86;79.94;99540.06;4985568;28;20566;-91
2021/01/19 10:27:02;;;;;;;3.60;0.50;;;;;;;11.87;79.91;99539.94;4987730;28;20031;-91
2021/01/19 10:29:30;;;;;;;5.88;0.70;;;;;;;11.90;79.01;99542.31;4979810;28;20026;-90
2021/01/19 10:32:00;;;;;;;2.75;0.70;;;;;;;11.83;79.50;99541.16;4978813;28;20035;-89
2021/01/19 10:34:27;;;;;;;2.20;0.38;;;;;;;12.07;79.36;99540.84;4984138;28;20023;-89
2021/01/19 10:36:54;;;;;;;3.40;0.55;;;;;;;12.07;79.11;99535.59;4984724;28;20045;-89
2021/01/19 10:39:20;;;;;;;2.75;0.50;;;;;;;12.24;78.60;99534.09;4975888;28;20073;-89
2021/01/19 10:41:48;;;;;;;2.25;0.40;;;;;;;11.94;78.41;99532.38;4975136;28;20026;-89
2021/01/19 10:44:13;;;;;;;1.55;0.47;;;;;;;11.80;78.74;99532.72;4975192;28;20034;-88
2021/01/19 10:46:39;;;;;;;2.60;0.57;;;;;;;11.90;77.56;99541.50;4985687;28;20385;-92
2021/01/19 10:49:10;;;;;;;1.58;0.40;;;;;;;11.87;77.42;99537.31;4985399;28;20146;-95
2021/01/19 10:51:36;;;;;;;0.70;0.43;;;;;;;11.70;78.12;99519.53;4984621;28;20031;-91
2021/01/19 10:54:19;;;;;;;1.45;0.40;;;;;;;12.07;75.51;99524.25;4983393;28;20034;-90
2021/01/19 10:56:45;;;;;;;0.45;0.20;;;;;;;12.42;75.74;99520.25;4978053;28;20035;-90
2021/01/19 10:59:11;;;;;;;5.03;0.22;;;;;;;12.14;75.42;99527.16;4986435;28;20117;-92
2021/01/19 11:01:37;;;;;;;0.38;0.35;;;;;;;11.60;76.33;99534.44;4990035;28;20515;-89
2021/01/19 11:04:04;;;;;;;0.50;0.20;;;;;;;11.68;74.67;99526.72;4993234;28;20125;-91
2021/01/19 11:06:37;;;;;;;0.95;0.30;;;;;;;11.64;76.65;99525.31;4994052;28;20022;-90
2021/01/19 11:09:06;;;;;;;1.02;0.30;;;;;;;11.89;75.71;99519.63;4983999;28;20039;-92
2021/01/19 11:11:35;;;;;;;1.88;0.30;;;;;;;11.74;75.30;99523.56;4975349;28;20465;-91
2021/01/19 11:14:04;;;;;;;1.70;0.38;;;;;;;11.46;76.46;99504.09;4984575;28;20492;-95
2021/01/19 11:16:35;;;;;;;3.75;1.08;;;;;;;11.82;75.13;99523.72;4991250;28;20421;-93
2021/01/19 11:19:02;;;;;;;2.10;0.40;;;;;;;12.28;74.12;99495.16;4993288;28;20066;-95
2021/01/19 11:21:31;;;;;;;1.67;0.47;;;;;;;12.20;72.41;99485.31;4992421;28;20559;-93
2021/01/19 11:23:56;;;;;;;3.42;0.70;;;;;;;12.28;73.66;99485.50;4992691;28;20045;-92
2021/01/19 11:26:23;;;;;;;1.75;0.50;;;;;;;12.18;74.64;99486.44;4985973;28;20018;-91
2021/01/19 11:28:48;;;;;;;1.75;0.40;;;;;;;11.94;75.19;99473.66;4982524;28;20101;-91
2021/01/19 11:31:19;;;;;;;3.47;0.93;;;;;;;12.14;73.29;99474.53;4991382;28;20046;-93
2021/01/19 11:33:44;;;;;;;2.05;0.47;;;;;;;12.24;72.51;99485.88;4994100;28;20026;-90
2021/01/19 11:36:17;;;;;;;2.20;0.35;;;;;;;12.60;71.99;99472.97;4979456;28;20085;-91
2021/01/19 11:38:43;;;;;;;4.03;0.40;;;;;;;12.70;71.75;99481.72;4966850;28;20062;-92
2021/01/19 11:41:08;;;;;;;1.92;0.47;;;;;;;12.30;72.67;99470.38;4974477;28;20026;-91
2021/01/19 12:09:25;;;;;;;6.05;0.95;;;;;;;11.57;75.90;99442.66;5645145;23;20419;-86